createdAt,value
2018-12-29T00:01:19.053Z,30.63
2018-12-29T00:03:52.375Z,29.80
2018-12-29T00:06:22.825Z,29.77
2018-12-29T00:08:56.551Z,31.77
2018-12-29T00:11:28.049Z,28.43
2018-12-29T00:13:58.668Z,27.90
2018-12-29T00:16:29.556Z,29.70
2018-12-29T00:19:03.624Z,30.97
2018-12-29T00:21:35.040Z,32.63
2018-12-29T00:24:05.802Z,30.27
2018-12-29T00:26:36.381Z,30.83
2018-12-29T00:29:06.854Z,32.30
2018-12-29T00:31:40.397Z,32.97
2018-12-29T00:34:10.974Z,31.67
2018-12-29T00:36:41.442Z,31.67
2018-12-29T00:39:12.000Z,33.03
2018-12-29T00:41:43.245Z,32.47
2018-12-29T00:44:14.017Z,30.87
2018-12-29T00:46:46.929Z,31.97
2018-12-29T00:49:17.434Z,32.17
2018-12-29T00:51:49.166Z,33.13
2018-12-29T00:54:19.881Z,33.37
2018-12-29T00:56:50.378Z,32.20
2018-12-29T00:59:20.884Z,33.83
2018-12-29T01:01:51.358Z,33.67
2018-12-29T01:04:21.937Z,32.40
2018-12-29T01:06:52.564Z,32.50
2018-12-29T01:09:23.206Z,33.50
2018-12-29T01:11:53.947Z,33.27
2018-12-29T01:14:24.611Z,32.03
2018-12-29T01:16:55.300Z,32.60
2018-12-29T01:19:29.982Z,33.03
2018-12-29T01:22:02.453Z,32.17
2018-12-29T01:24:32.943Z,33.00
2018-12-29T01:27:03.383Z,32.33
2018-12-29T01:29:34.119Z,34.03
2018-12-29T01:32:04.572Z,32.67
2018-12-29T01:34:35.357Z,31.80
2018-12-29T01:37:06.414Z,32.43
2018-12-29T01:39:36.844Z,30.73
2018-12-29T01:42:07.611Z,32.17
2018-12-29T01:44:45.891Z,31.47
2018-12-29T01:47:16.333Z,32.10
2018-12-29T01:49:47.159Z,31.37
2018-12-29T01:52:17.786Z,30.53
2018-12-29T01:54:48.299Z,32.00
2018-12-29T01:57:20.757Z,31.37
2018-12-29T01:59:51.131Z,31.57
2018-12-29T02:02:21.663Z,30.73
2018-12-29T02:04:52.139Z,30.73
2018-12-29T02:07:22.546Z,30.93
2018-12-29T02:09:53.553Z,32.13
2018-12-29T02:12:26.508Z,28.80
2018-12-29T02:14:57.128Z,29.70
2018-12-29T02:17:27.612Z,29.17
2018-12-29T02:19:58.525Z,28.87
2018-12-29T02:22:28.962Z,32.37
2018-12-29T02:25:04.707Z,30.90
2018-12-29T02:27:44.325Z,30.70
2018-12-29T02:30:18.677Z,30.57
2018-12-29T02:32:49.382Z,29.03
2018-12-29T02:35:20.025Z,30.10
2018-12-29T02:37:50.666Z,29.37
2018-12-29T02:40:21.117Z,31.00
2018-12-29T02:42:51.751Z,29.83
2018-12-29T02:45:22.217Z,31.67
2018-12-29T02:47:53.502Z,30.00
2018-12-29T02:50:24.055Z,30.60
2018-12-29T02:52:54.630Z,30.13
2018-12-29T02:55:27.808Z,30.50
2018-12-29T02:57:58.696Z,28.80
2018-12-29T03:00:29.112Z,29.40
2018-12-29T03:02:59.594Z,29.73
2018-12-29T03:05:30.100Z,30.13
2018-12-29T03:08:01.365Z,32.33
2018-12-29T03:10:31.768Z,30.23
2018-12-29T03:13:02.168Z,32.33
2018-12-29T03:15:32.663Z,30.47
2018-12-29T03:18:03.159Z,31.30
2018-12-29T03:20:34.320Z,31.63
2018-12-29T03:23:09.616Z,30.50
2018-12-29T03:25:40.515Z,29.33
2018-12-29T03:28:10.999Z,29.00
2018-12-29T03:30:41.492Z,30.17
2018-12-29T03:33:12.008Z,29.37
2018-12-29T03:35:43.008Z,28.77
2018-12-29T03:38:13.352Z,28.47
2018-12-29T03:40:43.840Z,28.57
2018-12-29T03:43:17.065Z,28.77
2018-12-29T03:45:49.331Z,28.70
2018-12-29T03:48:20.103Z,29.90
2018-12-29T03:50:53.231Z,30.50
2018-12-29T03:53:23.720Z,28.10
2018-12-29T03:55:56.878Z,27.80
2018-12-29T03:58:27.463Z,30.23
2018-12-29T04:00:58.043Z,29.33
2018-12-29T04:03:30.789Z,28.10
2018-12-29T04:06:02.196Z,29.83
2018-12-29T04:08:36.795Z,28.40
2018-12-29T04:11:07.120Z,27.80
2018-12-29T04:13:38.177Z,30.57
2018-12-29T04:16:10.736Z,30.10
2018-12-29T04:18:41.116Z,29.70
2018-12-29T04:21:11.544Z,29.20
2018-12-29T04:23:42.696Z,28.87
2018-12-29T04:26:13.115Z,31.23
2018-12-29T04:28:43.811Z,28.77
2018-12-29T04:31:14.322Z,31.30
2018-12-29T04:33:45.029Z,31.93
2018-12-29T04:36:15.429Z,30.80
2018-12-29T04:38:46.174Z,32.13
2018-12-29T04:41:16.749Z,29.47
2018-12-29T04:43:47.679Z,31.37
2018-12-29T04:46:18.604Z,30.63
2018-12-29T04:48:49.113Z,32.10
2018-12-29T04:51:20.166Z,31.67
2018-12-29T04:53:50.695Z,30.17
2018-12-29T04:56:24.244Z,30.17
2018-12-29T04:58:54.722Z,29.43
2018-12-29T05:01:25.147Z,30.73
2018-12-29T05:04:01.651Z,29.73
2018-12-29T05:06:32.374Z,30.13
2018-12-29T05:09:02.581Z,30.80
2018-12-29T05:11:33.380Z,29.73
2018-12-29T05:14:05.445Z,31.97
2018-12-29T05:16:35.923Z,29.97
2018-12-29T05:19:06.451Z,31.00
2018-12-29T05:21:36.989Z,31.13
2018-12-29T05:24:07.401Z,31.27
2018-12-29T05:26:37.830Z,29.13
2018-12-29T05:29:08.629Z,32.10
2018-12-29T05:31:42.238Z,30.97
2018-12-29T05:34:12.738Z,31.33
2018-12-29T05:36:44.008Z,31.93
2018-12-29T05:39:14.531Z,31.37
2018-12-29T05:41:44.944Z,30.50
2018-12-29T05:44:15.426Z,30.73
2018-12-29T05:46:45.883Z,30.03
2018-12-29T05:49:16.309Z,31.97
2018-12-29T05:51:50.105Z,32.53
2018-12-29T05:54:20.519Z,31.97
2018-12-29T05:56:54.113Z,31.23
2018-12-29T05:59:24.909Z,31.27
2018-12-29T06:01:56.137Z,31.83
2018-12-29T06:04:26.691Z,31.63
2018-12-29T06:06:59.344Z,31.33
2018-12-29T06:09:30.078Z,30.43
2018-12-29T06:12:02.043Z,30.93
2018-12-29T06:14:34.720Z,29.83
2018-12-29T06:17:05.099Z,31.70
2018-12-29T06:19:35.521Z,31.90
2018-12-29T06:22:06.056Z,33.10
2018-12-29T06:24:36.427Z,30.40
2018-12-29T06:27:06.841Z,31.37
2018-12-29T06:29:37.271Z,32.30
2018-12-29T06:32:09.985Z,31.87
2018-12-29T06:34:42.228Z,32.73
2018-12-29T06:37:12.716Z,32.33
2018-12-29T06:39:49.397Z,31.20
2018-12-29T06:42:21.847Z,31.93
2018-12-29T06:44:53.360Z,31.23
2018-12-29T06:47:23.757Z,30.53
2018-12-29T06:49:54.257Z,30.70
2018-12-29T06:52:24.676Z,30.90
2018-12-29T06:54:55.855Z,30.57
2018-12-29T06:57:28.588Z,31.67
2018-12-29T06:59:59.348Z,32.23
2018-12-29T07:02:31.769Z,31.03
2018-12-29T07:05:02.182Z,31.50
2018-12-29T07:07:34.901Z,31.67
2018-12-29T07:10:07.682Z,31.03
2018-12-29T07:12:38.314Z,33.23
2018-12-29T07:15:09.456Z,34.23
2018-12-29T07:17:44.870Z,31.87
2018-12-29T07:20:17.133Z,33.10
2018-12-29T07:22:48.603Z,31.80
2018-12-29T07:25:19.327Z,31.33
2018-12-29T07:27:50.094Z,30.87
2018-12-29T07:30:22.710Z,30.53
2018-12-29T07:32:56.959Z,30.93
2018-12-29T07:35:27.369Z,31.90
2018-12-29T07:37:57.832Z,31.67
2018-12-29T07:40:31.121Z,33.67
2018-12-29T07:43:05.363Z,32.27
2018-12-29T07:45:37.296Z,33.07
2018-12-29T07:48:08.059Z,31.80
2018-12-29T07:50:39.076Z,31.37
2018-12-29T07:53:10.610Z,35.47
2018-12-29T07:55:57.013Z,32.90
2018-12-29T07:58:31.433Z,33.03
2018-12-29T08:01:02.375Z,32.83
2018-12-29T08:03:32.799Z,32.33
2018-12-29T08:06:03.342Z,32.50
2018-12-29T08:08:33.832Z,30.80
2018-12-29T08:11:04.257Z,31.47
2018-12-29T08:13:34.681Z,31.13
2018-12-29T08:16:05.381Z,31.90
2018-12-29T08:18:40.895Z,33.40
2018-12-29T08:21:11.466Z,32.83
2018-12-29T08:23:41.847Z,33.93
2018-12-29T08:26:15.634Z,33.20
2018-12-29T08:28:48.370Z,32.13
2018-12-29T08:31:18.937Z,33.43
2018-12-29T08:33:49.421Z,34.40
2018-12-29T08:36:19.893Z,33.53
2018-12-29T08:38:50.683Z,32.57
2018-12-29T08:41:20.886Z,34.03
2018-12-29T08:43:54.684Z,33.50
2018-12-29T08:46:26.124Z,33.53
2018-12-29T08:48:56.675Z,34.03
2018-12-29T08:51:27.150Z,33.40
2018-12-29T08:53:57.663Z,33.20
2018-12-29T08:56:28.110Z,35.10
2018-12-29T08:59:06.446Z,33.37
2018-12-29T09:01:40.214Z,34.37
2018-12-29T09:04:11.066Z,33.67
2018-12-29T09:06:43.121Z,32.67
2018-12-29T09:09:14.438Z,33.10
2018-12-29T09:11:47.115Z,32.60
2018-12-29T09:14:17.518Z,34.20
2018-12-29T09:16:53.267Z,32.93
2018-12-29T09:19:27.269Z,33.00
2018-12-29T09:21:56.137Z,31.77
2018-12-29T09:24:26.461Z,33.87
2018-12-29T09:26:57.488Z,33.97
2018-12-29T09:29:27.807Z,32.87
2018-12-29T09:32:01.518Z,32.07
2018-12-29T09:34:34.755Z,32.77
2018-12-29T09:37:05.470Z,31.90
2018-12-29T09:39:35.831Z,33.00
2018-12-29T09:42:06.337Z,32.57
2018-12-29T09:44:36.749Z,32.67
2018-12-29T09:47:07.152Z,32.97
2018-12-29T09:49:37.856Z,32.47
2018-12-29T09:52:08.353Z,32.47
2018-12-29T09:54:42.111Z,31.73
2018-12-29T09:57:16.214Z,31.50
2018-12-29T09:59:46.653Z,32.40
2018-12-29T10:02:19.092Z,31.43
2018-12-29T10:04:50.555Z,31.53
2018-12-29T10:07:27.978Z,32.07
2018-12-29T10:09:59.531Z,31.73
2018-12-29T10:12:35.024Z,32.07
2018-12-29T10:15:08.838Z,32.17
2018-12-29T10:17:41.007Z,31.83
2018-12-29T10:20:11.540Z,31.67
2018-12-29T10:22:42.205Z,31.23
2018-12-29T10:25:12.867Z,32.13
2018-12-29T10:27:46.485Z,32.17
2018-12-29T10:30:24.951Z,29.80
2018-12-29T10:32:55.683Z,29.63
2018-12-29T10:35:27.898Z,29.80
2018-12-29T10:38:00.638Z,27.87
2018-12-29T10:40:31.161Z,29.03
2018-12-29T10:43:01.564Z,29.10
2018-12-29T10:45:32.068Z,28.20
2018-12-29T10:48:07.763Z,28.03
2018-12-29T10:50:40.033Z,27.10
2018-12-29T10:53:10.533Z,28.30
2018-12-29T10:55:47.407Z,28.93
2018-12-29T10:58:18.081Z,28.47
2018-12-29T11:00:49.375Z,27.10
2018-12-29T11:03:20.118Z,29.47
2018-12-29T11:06:15.096Z,29.10
2018-12-29T11:08:52.545Z,27.50
2018-12-29T11:11:23.334Z,29.20
2018-12-29T11:13:54.211Z,29.60
2018-12-29T11:16:28.098Z,28.10
2018-12-29T11:18:58.723Z,28.80
2018-12-29T11:21:29.118Z,28.37
2018-12-29T11:24:02.391Z,29.17
2018-12-29T11:26:35.873Z,26.70
2018-12-29T11:29:13.101Z,27.37
2018-12-29T11:31:43.556Z,26.10
2018-12-29T11:34:16.317Z,27.67
2018-12-29T11:36:46.899Z,25.43
2018-12-29T11:39:17.469Z,25.70
2018-12-29T11:41:51.072Z,27.00
2018-12-29T11:44:21.532Z,25.07
2018-12-29T11:46:52.842Z,24.47
2018-12-29T11:49:23.325Z,25.00
2018-12-29T11:51:53.750Z,24.83
2018-12-29T11:54:25.313Z,26.70
2018-12-29T11:56:57.492Z,24.63
2018-12-29T11:59:28.213Z,24.43
2018-12-29T12:01:58.717Z,25.40
2018-12-29T12:04:29.569Z,24.93
2018-12-29T12:07:01.739Z,25.60
2018-12-29T12:09:32.225Z,24.60
2018-12-29T12:12:05.497Z,24.90
2018-12-29T12:14:38.953Z,23.00
2018-12-29T12:17:09.808Z,22.73
2018-12-29T12:19:40.180Z,23.13
2018-12-29T12:22:13.374Z,23.07
2018-12-29T12:24:44.073Z,22.83
2018-12-29T12:27:14.515Z,22.20
2018-12-29T12:29:45.473Z,22.27
2018-12-29T12:32:15.983Z,22.43
2018-12-29T12:34:49.412Z,23.13
2018-12-29T12:37:19.804Z,23.33
2018-12-29T12:39:50.493Z,21.63
2018-12-29T12:42:23.937Z,21.50
2018-12-29T12:44:56.710Z,21.37
2018-12-29T12:47:29.085Z,22.40
2018-12-29T12:49:59.707Z,22.90
2018-12-29T12:52:31.160Z,22.17
2018-12-29T12:55:02.065Z,22.53
2018-12-29T12:57:33.372Z,21.60
2018-12-29T13:00:07.763Z,20.57
2018-12-29T13:02:42.130Z,22.43
2018-12-29T13:05:21.707Z,20.37
2018-12-29T13:07:52.783Z,20.90
2018-12-29T13:10:24.017Z,21.23
2018-12-29T13:12:56.953Z,21.87
2018-12-29T13:15:27.823Z,21.70
2018-12-29T13:18:01.753Z,22.00
2018-12-29T13:20:32.746Z,20.97
2018-12-29T13:23:03.229Z,19.63
2018-12-29T13:25:34.686Z,19.63
2018-12-29T13:28:08.153Z,20.20
2018-12-29T13:30:42.232Z,20.00
2018-12-29T13:33:12.887Z,20.13
2018-12-29T13:35:44.518Z,19.67
2018-12-29T13:38:18.160Z,18.60
2018-12-29T13:40:51.340Z,20.67
2018-12-29T13:43:21.807Z,20.07
2018-12-29T13:45:52.297Z,20.83
2018-12-29T13:48:22.798Z,19.03
2018-12-29T13:50:56.704Z,20.77
2018-12-29T13:53:31.513Z,21.00
2018-12-29T13:56:04.459Z,21.53
2018-12-29T13:58:34.856Z,18.87
2018-12-29T14:01:08.135Z,19.17
2018-12-29T14:03:41.725Z,18.70
2018-12-29T14:06:12.241Z,18.97
2018-12-29T14:08:42.979Z,19.33
2018-12-29T14:11:13.482Z,19.77
2018-12-29T14:13:43.962Z,18.57
2018-12-29T14:16:14.663Z,17.80
2018-12-29T14:18:45.720Z,18.07
2018-12-29T14:21:16.540Z,18.27
2018-12-29T14:23:46.945Z,18.10
2018-12-29T14:26:18.538Z,18.57
2018-12-29T14:28:49.146Z,16.47
2018-12-29T14:31:19.840Z,16.00
2018-12-29T14:33:54.002Z,16.10
2018-12-29T14:36:24.470Z,16.53
2018-12-29T14:38:55.033Z,16.17
2018-12-29T14:41:25.743Z,15.30
2018-12-29T14:43:56.735Z,17.27
2018-12-29T14:46:27.121Z,16.03
2018-12-29T14:48:57.716Z,16.97
2018-12-29T14:51:31.158Z,16.30
2018-12-29T14:54:01.991Z,15.00
2018-12-29T14:56:32.632Z,15.97
2018-12-29T14:59:03.216Z,15.80
2018-12-29T15:01:33.942Z,15.63
2018-12-29T15:04:04.595Z,13.87
2018-12-29T15:06:39.601Z,14.80
2018-12-29T15:09:10.347Z,13.47
2018-12-29T15:11:40.862Z,14.07
2018-12-29T15:14:11.357Z,13.10
2018-12-29T15:16:42.264Z,13.73
2018-12-29T15:19:14.793Z,12.83
2018-12-29T15:21:45.366Z,13.07
2018-12-29T15:24:16.788Z,11.03
2018-12-29T15:26:47.424Z,12.13
2018-12-29T15:29:20.289Z,12.80
2018-12-29T15:31:53.144Z,10.90
2018-12-29T15:34:23.851Z,10.93
2018-12-29T15:36:54.299Z,11.30
2018-12-29T15:39:26.652Z,10.17
2018-12-29T15:41:57.189Z,11.77
2018-12-29T15:44:27.854Z,12.20
2018-12-29T15:46:58.656Z,12.37
2018-12-29T15:49:29.207Z,12.90
2018-12-29T15:52:02.583Z,13.00
2018-12-29T15:54:33.481Z,14.10
2018-12-29T15:57:04.087Z,14.17
2018-12-29T15:59:34.680Z,14.53
2018-12-29T16:02:05.267Z,16.87
2018-12-29T16:04:36.021Z,16.43
2018-12-29T16:07:06.757Z,17.80
2018-12-29T16:09:37.843Z,17.50
2018-12-29T16:12:08.444Z,18.07
2018-12-29T16:14:38.807Z,18.50
2018-12-29T16:17:10.639Z,17.90
2018-12-29T16:19:41.161Z,18.73
2018-12-29T16:22:11.563Z,20.43
2018-12-29T16:24:42.308Z,20.30
2018-12-29T16:27:12.777Z,20.50
2018-12-29T16:29:43.214Z,20.47
2018-12-29T16:32:13.662Z,20.40
2018-12-29T16:34:44.025Z,18.93
2018-12-29T16:37:14.425Z,20.80
2018-12-29T16:39:45.333Z,20.40
2018-12-29T16:42:15.805Z,21.93
2018-12-29T16:44:47.455Z,20.20
2018-12-29T16:47:18.392Z,19.67
2018-12-29T16:49:48.882Z,20.37
2018-12-29T16:52:23.127Z,21.07
2018-12-29T16:54:54.957Z,20.67
2018-12-29T16:57:25.360Z,19.23
2018-12-29T16:59:55.953Z,19.90
2018-12-29T17:02:26.443Z,18.30
2018-12-29T17:04:56.871Z,19.23
2018-12-29T17:07:27.808Z,18.80
2018-12-29T17:09:58.326Z,19.67
2018-12-29T17:12:28.707Z,19.07
2018-12-29T17:14:59.461Z,19.70
2018-12-29T17:17:29.831Z,18.73
2018-12-29T17:20:00.233Z,18.50
2018-12-29T17:22:30.906Z,19.80
2018-12-29T17:25:04.816Z,18.80
2018-12-29T17:27:35.247Z,18.43
2018-12-29T17:30:06.050Z,18.63
2018-12-29T17:32:38.649Z,17.93
2018-12-29T17:35:09.197Z,19.33
2018-12-29T17:37:41.396Z,18.33
2018-12-29T17:40:11.813Z,17.70
2018-12-29T17:42:42.251Z,19.00
2018-12-29T17:45:14.719Z,18.00
2018-12-29T17:47:45.008Z,27.27
2018-12-29T17:50:16.016Z,19.23
2018-12-29T17:52:49.584Z,18.67
2018-12-29T17:55:20.040Z,19.77
2018-12-29T17:57:57.813Z,18.37
2018-12-29T18:00:30.300Z,19.50
2018-12-29T18:03:01.843Z,19.50
2018-12-29T18:05:32.359Z,20.67
2018-12-29T18:08:02.853Z,19.93
2018-12-29T18:10:33.907Z,21.10
2018-12-29T18:13:04.376Z,20.87
2018-12-29T18:15:34.932Z,19.87
2018-12-29T18:18:05.555Z,20.93
2018-12-29T18:20:36.453Z,20.57
2018-12-29T18:23:06.968Z,19.30
2018-12-29T18:25:37.607Z,20.70
2018-12-29T18:28:10.596Z,21.93
2018-12-29T18:30:44.134Z,20.97
2018-12-29T18:33:15.033Z,22.17
2018-12-29T18:35:46.203Z,21.63
2018-12-29T18:38:18.654Z,23.17
2018-12-29T18:40:49.082Z,22.13
2018-12-29T18:43:19.511Z,21.87
2018-12-29T18:45:55.255Z,22.60
2018-12-29T18:48:26.771Z,23.43
2018-12-29T18:50:59.146Z,24.37
2018-12-29T18:53:31.878Z,24.30
2018-12-29T18:56:02.830Z,25.10
2018-12-29T18:58:33.419Z,26.77
2018-12-29T19:01:05.576Z,25.57
2018-12-29T19:03:36.355Z,25.93
2018-12-29T19:06:10.234Z,25.97
2018-12-29T19:08:41.063Z,27.20
2018-12-29T19:11:11.598Z,28.43
2018-12-29T19:13:42.112Z,28.27
2018-12-29T19:16:14.395Z,28.13
2018-12-29T19:18:49.990Z,27.97
2018-12-29T19:21:21.423Z,28.50
2018-12-29T19:23:52.422Z,30.67
2018-12-29T19:26:24.145Z,29.27
2018-12-29T19:28:55.863Z,30.60
2018-12-29T19:31:26.550Z,30.17
2018-12-29T19:33:57.336Z,31.20
2018-12-29T19:36:28.292Z,30.83
2018-12-29T19:38:59.289Z,31.47
2018-12-29T19:41:29.994Z,30.37
2018-12-29T19:44:03.451Z,32.17
2018-12-29T19:46:36.612Z,31.30
2018-12-29T19:49:07.139Z,32.77
2018-12-29T19:51:37.670Z,31.80
2018-12-29T19:54:08.646Z,32.37
2018-12-29T19:56:42.529Z,33.80
2018-12-29T19:59:15.605Z,33.30
2018-12-29T20:01:46.612Z,32.37
2018-12-29T20:04:18.532Z,34.23
2018-12-29T20:06:51.864Z,33.70
2018-12-29T20:09:23.017Z,34.10
2018-12-29T20:11:53.763Z,33.90
2018-12-29T20:14:24.721Z,32.07
2018-12-29T20:16:55.285Z,33.47
2018-12-29T20:19:28.070Z,33.10
2018-12-29T20:21:58.876Z,30.23
2018-12-29T20:24:29.971Z,33.37
2018-12-29T20:27:00.849Z,30.60
2018-12-29T20:29:33.894Z,30.23
2018-12-29T20:32:04.403Z,29.90
2018-12-29T20:34:36.061Z,30.73
2018-12-29T20:37:11.114Z,28.70
2018-12-29T20:39:41.979Z,29.13
2018-12-29T20:42:12.689Z,28.43
2018-12-29T20:44:43.675Z,29.30
2018-12-29T20:47:14.633Z,27.87
2018-12-29T20:49:46.241Z,27.47
2018-12-29T20:52:19.129Z,28.47
2018-12-29T20:54:50.311Z,26.80
2018-12-29T20:57:21.413Z,26.40
2018-12-29T20:59:55.390Z,23.80
2018-12-29T21:02:26.082Z,22.13
2018-12-29T21:05:00.270Z,21.57
2018-12-29T21:07:33.911Z,19.13
2018-12-29T21:10:07.143Z,18.13
2018-12-29T21:12:37.525Z,17.50
2018-12-29T21:15:08.157Z,18.17
2018-12-29T21:17:38.674Z,17.27
2018-12-29T21:20:17.348Z,15.80
2018-12-29T21:22:44.189Z,16.43
2018-12-29T21:25:14.551Z,16.30
2018-12-29T21:27:45.036Z,14.30
2018-12-29T21:30:15.774Z,15.03
2018-12-29T21:32:48.924Z,14.07
2018-12-29T21:35:19.457Z,12.70
2018-12-29T21:37:50.188Z,10.67
2018-12-29T21:40:20.565Z,10.43
2018-12-29T21:42:51.443Z,10.27
2018-12-29T21:45:21.952Z,9.87
2018-12-29T21:47:56.268Z,8.30
2018-12-29T21:50:28.264Z,9.17
2018-12-29T21:52:59.277Z,7.27
2018-12-29T21:55:30.025Z,6.10
2018-12-29T21:58:00.796Z,6.47
2018-12-29T22:00:31.201Z,5.73
2018-12-29T22:03:01.626Z,4.73
2018-12-29T22:05:32.542Z,4.43
2018-12-29T22:08:03.026Z,4.67
2018-12-29T22:10:35.279Z,3.80
2018-12-29T22:13:05.690Z,3.57
2018-12-29T22:15:36.167Z,3.50
2018-12-29T22:18:06.644Z,4.23
2018-12-29T22:20:39.947Z,3.77
2018-12-29T22:23:13.465Z,3.37
2018-12-29T22:25:48.118Z,3.47
2018-12-29T22:28:16.045Z,3.53
2018-12-29T22:30:46.470Z,3.40
2018-12-29T22:33:17.059Z,3.13
2018-12-29T22:35:47.943Z,2.87
2018-12-29T22:38:29.301Z,3.77
2018-12-29T22:40:59.760Z,3.13
2018-12-29T22:43:30.392Z,3.87
2018-12-29T22:46:00.871Z,3.33
2018-12-29T22:48:31.474Z,3.90
2018-12-29T22:51:03.199Z,3.13
2018-12-29T22:53:37.973Z,3.97
2018-12-29T22:56:08.870Z,4.07
2018-12-29T22:58:42.270Z,3.80
2018-12-29T23:01:13.349Z,3.40
2018-12-29T23:03:44.025Z,4.00
2018-12-29T23:06:14.986Z,3.27
2018-12-29T23:08:47.399Z,3.03
2018-12-29T23:11:25.157Z,3.20
2018-12-29T23:13:56.810Z,3.67
2018-12-29T23:16:27.327Z,3.07
2018-12-29T23:18:58.860Z,3.70
2018-12-29T23:21:34.327Z,3.07
2018-12-29T23:24:06.008Z,3.73
2018-12-29T23:26:37.536Z,3.23
2018-12-29T23:29:11.299Z,2.90
2018-12-29T23:31:44.496Z,4.03
2018-12-29T23:34:15.126Z,4.13
2018-12-29T23:36:48.588Z,3.47
2018-12-29T23:39:19.061Z,3.07
2018-12-29T23:41:50.330Z,3.10
2018-12-29T23:44:21.633Z,2.90
2018-12-29T23:46:54.001Z,3.10
2018-12-29T23:49:26.143Z,3.80
2018-12-29T23:51:57.552Z,3.13
2018-12-29T23:54:30.356Z,3.33
2018-12-29T23:57:04.108Z,4.03
2018-12-29T23:59:37.241Z,3.27
